sensor_id;sensor_type;location;lat;lon;timestamp;P1;durP1;ratioP1;P2;durP2;ratioP2
57401;SDS011;43226;51.110;6.998;2023-12-20T00:01:01;16.80;;;10.07;;
57401;SDS011;43226;51.110;6.998;2023-12-20T00:03:26;14.70;;;9.00;;
57401;SDS011;43226;51.110;6.998;2023-12-20T00:05:51;14.60;;;10.00;;
57401;SDS011;43226;51.110;6.998;2023-12-20T00:08:17;14.93;;;9.53;;
57401;SDS011;43226;51.110;6.998;2023-12-20T00:10:45;14.87;;;9.03;;
57401;SDS011;43226;51.110;6.998;2023-12-20T00:13:10;13.93;;;8.57;;
57401;SDS011;43226;51.110;6.998;2023-12-20T00:15:36;15.10;;;8.37;;
57401;SDS011;43226;51.110;6.998;2023-12-20T00:18:01;11.60;;;6.43;;
57401;SDS011;43226;51.110;6.998;2023-12-20T00:20:26;4.80;;;3.70;;
57401;SDS011;43226;51.110;6.998;2023-12-20T00:22:52;8.20;;;3.27;;
57401;SDS011;43226;51.110;6.998;2023-12-20T00:25:17;4.73;;;3.13;;
57401;SDS011;43226;51.110;6.998;2023-12-20T00:27:42;7.27;;;3.23;;
57401;SDS011;43226;51.110;6.998;2023-12-20T00:30:08;4.03;;;2.73;;
57401;SDS011;43226;51.110;6.998;2023-12-20T00:32:34;8.00;;;3.50;;
57401;SDS011;43226;51.110;6.998;2023-12-20T00:34:59;8.27;;;2.93;;
57401;SDS011;43226;51.110;6.998;2023-12-20T00:37:24;7.13;;;3.63;;
57401;SDS011;43226;51.110;6.998;2023-12-20T00:39:50;3.90;;;3.27;;
57401;SDS011;43226;51.110;6.998;2023-12-20T00:42:15;6.73;;;3.93;;
57401;SDS011;43226;51.110;6.998;2023-12-20T00:44:40;6.83;;;3.40;;
57401;SDS011;43226;51.110;6.998;2023-12-20T00:47:05;6.93;;;4.37;;
57401;SDS011;43226;51.110;6.998;2023-12-20T00:49:30;5.63;;;3.97;;
57401;SDS011;43226;51.110;6.998;2023-12-20T00:51:56;6.45;;;3.95;;
57401;SDS011;43226;51.110;6.998;2023-12-20T00:54:21;5.70;;;3.63;;
57401;SDS011;43226;51.110;6.998;2023-12-20T00:56:46;10.07;;;3.80;;
57401;SDS011;43226;51.110;6.998;2023-12-20T00:59:11;5.57;;;3.30;;
57401;SDS011;43226;51.110;6.998;2023-12-20T01:01:36;7.30;;;3.97;;
57401;SDS011;43226;51.110;6.998;2023-12-20T01:04:02;5.50;;;3.73;;
57401;SDS011;43226;51.110;6.998;2023-12-20T01:06:27;6.20;;;3.80;;
57401;SDS011;43226;51.110;6.998;2023-12-20T01:08:52;10.80;;;3.67;;
57401;SDS011;43226;51.110;6.998;2023-12-20T01:11:17;9.17;;;3.90;;
57401;SDS011;43226;51.110;6.998;2023-12-20T01:13:42;4.73;;;4.07;;
57401;SDS011;43226;51.110;6.998;2023-12-20T01:16:09;9.07;;;4.83;;
57401;SDS011;43226;51.110;6.998;2023-12-20T01:18:35;6.60;;;3.87;;
57401;SDS011;43226;51.110;6.998;2023-12-20T01:21:03;13.33;;;4.87;;
57401;SDS011;43226;51.110;6.998;2023-12-20T01:23:28;10.80;;;3.97;;
57401;SDS011;43226;51.110;6.998;2023-12-20T01:25:53;5.73;;;3.53;;
57401;SDS011;43226;51.110;6.998;2023-12-20T01:28:19;12.97;;;4.40;;
57401;SDS011;43226;51.110;6.998;2023-12-20T01:30:44;11.53;;;4.50;;
57401;SDS011;43226;51.110;6.998;2023-12-20T01:33:09;9.63;;;3.90;;
57401;SDS011;43226;51.110;6.998;2023-12-20T01:35:34;17.00;;;5.00;;
57401;SDS011;43226;51.110;6.998;2023-12-20T01:37:59;12.53;;;4.60;;
57401;SDS011;43226;51.110;6.998;2023-12-20T01:40:25;9.77;;;4.80;;
57401;SDS011;43226;51.110;6.998;2023-12-20T01:43:11;8.97;;;4.63;;
57401;SDS011;43226;51.110;6.998;2023-12-20T01:45:37;11.43;;;6.00;;
57401;SDS011;43226;51.110;6.998;2023-12-20T01:48:02;13.83;;;5.10;;
57401;SDS011;43226;51.110;6.998;2023-12-20T01:50:29;18.73;;;6.40;;
57401;SDS011;43226;51.110;6.998;2023-12-20T01:52:55;14.33;;;6.87;;
57401;SDS011;43226;51.110;6.998;2023-12-20T01:55:22;12.60;;;6.17;;
57401;SDS011;43226;51.110;6.998;2023-12-20T01:57:48;12.37;;;7.27;;
57401;SDS011;43226;51.110;6.998;2023-12-20T02:00:13;20.73;;;8.17;;
57401;SDS011;43226;51.110;6.998;2023-12-20T02:02:40;17.80;;;8.17;;
57401;SDS011;43226;51.110;6.998;2023-12-20T02:05:05;18.33;;;8.40;;
57401;SDS011;43226;51.110;6.998;2023-12-20T02:07:30;14.20;;;8.80;;
57401;SDS011;43226;51.110;6.998;2023-12-20T02:09:56;14.30;;;7.70;;
57401;SDS011;43226;51.110;6.998;2023-12-20T02:12:21;10.93;;;7.67;;
57401;SDS011;43226;51.110;6.998;2023-12-20T02:14:46;22.40;;;8.93;;
57401;SDS011;43226;51.110;6.998;2023-12-20T02:17:12;15.30;;;7.73;;
57401;SDS011;43226;51.110;6.998;2023-12-20T02:19:37;12.83;;;7.50;;
57401;SDS011;43226;51.110;6.998;2023-12-20T02:22:09;14.10;;;7.13;;
57401;SDS011;43226;51.110;6.998;2023-12-20T02:24:34;10.33;;;6.90;;
57401;SDS011;43226;51.110;6.998;2023-12-20T02:26:59;16.03;;;6.63;;
57401;SDS011;43226;51.110;6.998;2023-12-20T02:29:24;13.37;;;6.00;;
57401;SDS011;43226;51.110;6.998;2023-12-20T02:31:50;15.50;;;6.10;;
57401;SDS011;43226;51.110;6.998;2023-12-20T02:34:15;15.50;;;6.07;;
57401;SDS011;43226;51.110;6.998;2023-12-20T02:36:40;14.40;;;5.85;;
57401;SDS011;43226;51.110;6.998;2023-12-20T02:39:06;17.40;;;7.47;;
57401;SDS011;43226;51.110;6.998;2023-12-20T02:41:31;9.70;;;6.07;;
57401;SDS011;43226;51.110;6.998;2023-12-20T02:43:56;10.47;;;5.83;;
57401;SDS011;43226;51.110;6.998;2023-12-20T02:46:21;10.40;;;6.47;;
57401;SDS011;43226;51.110;6.998;2023-12-20T02:48:48;13.90;;;5.90;;
57401;SDS011;43226;51.110;6.998;2023-12-20T02:51:13;11.93;;;5.30;;
57401;SDS011;43226;51.110;6.998;2023-12-20T02:53:38;15.73;;;5.40;;
57401;SDS011;43226;51.110;6.998;2023-12-20T02:56:03;18.63;;;6.60;;
57401;SDS011;43226;51.110;6.998;2023-12-20T02:58:28;15.50;;;5.87;;
57401;SDS011;43226;51.110;6.998;2023-12-20T03:00:54;19.00;;;5.17;;
57401;SDS011;43226;51.110;6.998;2023-12-20T03:03:19;13.60;;;5.17;;
57401;SDS011;43226;51.110;6.998;2023-12-20T03:05:45;16.70;;;6.00;;
57401;SDS011;43226;51.110;6.998;2023-12-20T03:08:11;13.73;;;4.50;;
57401;SDS011;43226;51.110;6.998;2023-12-20T03:10:36;12.47;;;4.93;;
57401;SDS011;43226;51.110;6.998;2023-12-20T03:13:01;17.70;;;4.87;;
57401;SDS011;43226;51.110;6.998;2023-12-20T03:15:26;10.17;;;5.83;;
57401;SDS011;43226;51.110;6.998;2023-12-20T03:17:51;10.00;;;4.10;;
57401;SDS011;43226;51.110;6.998;2023-12-20T03:20:16;11.50;;;3.57;;
57401;SDS011;43226;51.110;6.998;2023-12-20T03:22:42;12.53;;;3.97;;
57401;SDS011;43226;51.110;6.998;2023-12-20T03:25:07;10.80;;;3.80;;
57401;SDS011;43226;51.110;6.998;2023-12-20T03:27:32;15.33;;;3.53;;
57401;SDS011;43226;51.110;6.998;2023-12-20T03:29:58;13.23;;;3.80;;
57401;SDS011;43226;51.110;6.998;2023-12-20T03:32:23;11.00;;;3.20;;
57401;SDS011;43226;51.110;6.998;2023-12-20T03:34:48;9.33;;;3.10;;
57401;SDS011;43226;51.110;6.998;2023-12-20T03:37:13;11.13;;;2.83;;
57401;SDS011;43226;51.110;6.998;2023-12-20T03:39:38;10.07;;;3.30;;
57401;SDS011;43226;51.110;6.998;2023-12-20T03:42:04;8.07;;;2.57;;
57401;SDS011;43226;51.110;6.998;2023-12-20T03:44:29;5.27;;;2.50;;
57401;SDS011;43226;51.110;6.998;2023-12-20T03:46:54;9.80;;;2.53;;
57401;SDS011;43226;51.110;6.998;2023-12-20T03:49:19;10.80;;;2.43;;
57401;SDS011;43226;51.110;6.998;2023-12-20T03:51:44;10.30;;;2.50;;
57401;SDS011;43226;51.110;6.998;2023-12-20T03:54:09;7.50;;;3.07;;
57401;SDS011;43226;51.110;6.998;2023-12-20T03:56:35;10.80;;;2.50;;
57401;SDS011;43226;51.110;6.998;2023-12-20T03:59:00;10.17;;;3.63;;
57401;SDS011;43226;51.110;6.998;2023-12-20T04:01:25;7.87;;;2.97;;
57401;SDS011;43226;51.110;6.998;2023-12-20T04:03:50;9.60;;;2.80;;
57401;SDS011;43226;51.110;6.998;2023-12-20T04:06:16;12.13;;;3.30;;
57401;SDS011;43226;51.110;6.998;2023-12-20T04:08:41;11.60;;;3.53;;
57401;SDS011;43226;51.110;6.998;2023-12-20T04:11:07;11.93;;;3.57;;
57401;SDS011;43226;51.110;6.998;2023-12-20T04:13:32;15.50;;;3.67;;
57401;SDS011;43226;51.110;6.998;2023-12-20T04:15:57;9.33;;;3.53;;
57401;SDS011;43226;51.110;6.998;2023-12-20T04:18:22;10.07;;;3.23;;
57401;SDS011;43226;51.110;6.998;2023-12-20T04:20:47;10.83;;;2.30;;
57401;SDS011;43226;51.110;6.998;2023-12-20T04:23:12;12.33;;;2.90;;
57401;SDS011;43226;51.110;6.998;2023-12-20T04:25:38;11.30;;;3.30;;
57401;SDS011;43226;51.110;6.998;2023-12-20T04:28:03;10.00;;;3.23;;
57401;SDS011;43226;51.110;6.998;2023-12-20T04:30:28;28.90;;;4.30;;
57401;SDS011;43226;51.110;6.998;2023-12-20T04:32:53;19.27;;;2.90;;
57401;SDS011;43226;51.110;6.998;2023-12-20T04:35:18;6.83;;;2.73;;
57401;SDS011;43226;51.110;6.998;2023-12-20T04:37:44;9.27;;;3.10;;
57401;SDS011;43226;51.110;6.998;2023-12-20T04:40:09;7.93;;;3.07;;
57401;SDS011;43226;51.110;6.998;2023-12-20T04:42:34;11.97;;;3.20;;
57401;SDS011;43226;51.110;6.998;2023-12-20T04:45:00;14.63;;;3.40;;
57401;SDS011;43226;51.110;6.998;2023-12-20T04:47:25;9.20;;;3.53;;
57401;SDS011;43226;51.110;6.998;2023-12-20T04:49:50;17.10;;;3.90;;
57401;SDS011;43226;51.110;6.998;2023-12-20T04:52:15;5.83;;;2.83;;
57401;SDS011;43226;51.110;6.998;2023-12-20T04:54:40;11.20;;;4.30;;
57401;SDS011;43226;51.110;6.998;2023-12-20T04:57:05;11.83;;;3.33;;
57401;SDS011;43226;51.110;6.998;2023-12-20T04:59:31;15.50;;;3.60;;
57401;SDS011;43226;51.110;6.998;2023-12-20T05:01:56;12.43;;;3.13;;
57401;SDS011;43226;51.110;6.998;2023-12-20T05:04:22;15.80;;;4.67;;
57401;SDS011;43226;51.110;6.998;2023-12-20T05:06:47;8.53;;;3.57;;
57401;SDS011;43226;51.110;6.998;2023-12-20T05:09:14;10.93;;;3.57;;
57401;SDS011;43226;51.110;6.998;2023-12-20T05:11:39;13.50;;;3.37;;
57401;SDS011;43226;51.110;6.998;2023-12-20T05:14:05;12.13;;;3.10;;
57401;SDS011;43226;51.110;6.998;2023-12-20T05:16:30;7.53;;;2.77;;
57401;SDS011;43226;51.110;6.998;2023-12-20T05:18:55;18.33;;;3.80;;
57401;SDS011;43226;51.110;6.998;2023-12-20T05:21:21;10.50;;;3.63;;
57401;SDS011;43226;51.110;6.998;2023-12-20T05:23:46;11.47;;;3.87;;
57401;SDS011;43226;51.110;6.998;2023-12-20T05:26:11;18.70;;;4.33;;
57401;SDS011;43226;51.110;6.998;2023-12-20T05:28:36;11.27;;;2.90;;
57401;SDS011;43226;51.110;6.998;2023-12-20T05:31:01;11.52;;;3.47;;
57401;SDS011;43226;51.110;6.998;2023-12-20T05:33:27;18.67;;;4.50;;
57401;SDS011;43226;51.110;6.998;2023-12-20T05:35:52;11.23;;;3.80;;
57401;SDS011;43226;51.110;6.998;2023-12-20T05:38:17;21.50;;;6.17;;
57401;SDS011;43226;51.110;6.998;2023-12-20T05:40:42;15.27;;;3.70;;
57401;SDS011;43226;51.110;6.998;2023-12-20T05:43:08;11.63;;;3.37;;
57401;SDS011;43226;51.110;6.998;2023-12-20T05:45:33;19.33;;;4.47;;
57401;SDS011;43226;51.110;6.998;2023-12-20T05:47:58;15.87;;;3.83;;
57401;SDS011;43226;51.110;6.998;2023-12-20T05:50:23;14.00;;;4.30;;
57401;SDS011;43226;51.110;6.998;2023-12-20T05:52:49;20.20;;;5.07;;
57401;SDS011;43226;51.110;6.998;2023-12-20T05:55:15;11.40;;;3.70;;
57401;SDS011;43226;51.110;6.998;2023-12-20T05:57:40;7.30;;;2.87;;
57401;SDS011;43226;51.110;6.998;2023-12-20T06:00:06;20.30;;;4.40;;
57401;SDS011;43226;51.110;6.998;2023-12-20T06:02:32;19.50;;;3.47;;
57401;SDS011;43226;51.110;6.998;2023-12-20T06:04:57;18.90;;;3.60;;
57401;SDS011;43226;51.110;6.998;2023-12-20T06:07:23;14.50;;;3.77;;
57401;SDS011;43226;51.110;6.998;2023-12-20T06:09:48;12.20;;;4.00;;
57401;SDS011;43226;51.110;6.998;2023-12-20T06:12:13;16.77;;;3.53;;
57401;SDS011;43226;51.110;6.998;2023-12-20T06:14:38;15.17;;;3.27;;
57401;SDS011;43226;51.110;6.998;2023-12-20T06:17:03;13.90;;;4.20;;
57401;SDS011;43226;51.110;6.998;2023-12-20T06:19:28;22.00;;;4.10;;
57401;SDS011;43226;51.110;6.998;2023-12-20T06:21:54;15.07;;;3.77;;
57401;SDS011;43226;51.110;6.998;2023-12-20T06:24:19;12.93;;;3.67;;
57401;SDS011;43226;51.110;6.998;2023-12-20T06:26:44;10.47;;;4.13;;
57401;SDS011;43226;51.110;6.998;2023-12-20T06:29:09;12.80;;;4.57;;
57401;SDS011;43226;51.110;6.998;2023-12-20T06:31:34;10.83;;;3.00;;
57401;SDS011;43226;51.110;6.998;2023-12-20T06:34:00;6.20;;;3.00;;
57401;SDS011;43226;51.110;6.998;2023-12-20T06:36:25;20.90;;;3.20;;
57401;SDS011;43226;51.110;6.998;2023-12-20T06:38:51;12.30;;;3.63;;
57401;SDS011;43226;51.110;6.998;2023-12-20T06:41:16;14.63;;;3.67;;
57401;SDS011;43226;51.110;6.998;2023-12-20T06:43:41;13.30;;;4.30;;
57401;SDS011;43226;51.110;6.998;2023-12-20T06:46:07;16.73;;;3.80;;
57401;SDS011;43226;51.110;6.998;2023-12-20T06:48:32;14.37;;;3.80;;
57401;SDS011;43226;51.110;6.998;2023-12-20T06:50:59;14.47;;;3.80;;
57401;SDS011;43226;51.110;6.998;2023-12-20T06:53:24;21.70;;;4.70;;
57401;SDS011;43226;51.110;6.998;2023-12-20T06:55:49;12.30;;;3.10;;
57401;SDS011;43226;51.110;6.998;2023-12-20T06:58:15;9.70;;;3.20;;
57401;SDS011;43226;51.110;6.998;2023-12-20T07:00:40;13.53;;;3.50;;
57401;SDS011;43226;51.110;6.998;2023-12-20T07:03:05;22.43;;;3.63;;
57401;SDS011;43226;51.110;6.998;2023-12-20T07:05:30;17.47;;;4.37;;
57401;SDS011;43226;51.110;6.998;2023-12-20T07:07:56;12.13;;;3.20;;
57401;SDS011;43226;51.110;6.998;2023-12-20T07:10:21;13.93;;;3.60;;
57401;SDS011;43226;51.110;6.998;2023-12-20T07:12:46;9.43;;;3.13;;
57401;SDS011;43226;51.110;6.998;2023-12-20T07:15:14;11.80;;;4.07;;
57401;SDS011;43226;51.110;6.998;2023-12-20T07:17:39;15.13;;;3.77;;
57401;SDS011;43226;51.110;6.998;2023-12-20T07:20:04;11.80;;;3.37;;
57401;SDS011;43226;51.110;6.998;2023-12-20T07:22:31;13.30;;;3.57;;
57401;SDS011;43226;51.110;6.998;2023-12-20T07:24:57;17.93;;;4.47;;
57401;SDS011;43226;51.110;6.998;2023-12-20T07:27:22;10.50;;;3.20;;
57401;SDS011;43226;51.110;6.998;2023-12-20T07:29:47;8.90;;;3.60;;
57401;SDS011;43226;51.110;6.998;2023-12-20T07:32:12;8.20;;;3.10;;
57401;SDS011;43226;51.110;6.998;2023-12-20T07:34:37;9.93;;;3.27;;
57401;SDS011;43226;51.110;6.998;2023-12-20T07:37:03;11.23;;;3.73;;
57401;SDS011;43226;51.110;6.998;2023-12-20T07:39:28;9.00;;;2.63;;
57401;SDS011;43226;51.110;6.998;2023-12-20T07:41:53;20.37;;;5.33;;
57401;SDS011;43226;51.110;6.998;2023-12-20T07:44:18;13.43;;;4.00;;
57401;SDS011;43226;51.110;6.998;2023-12-20T07:46:43;7.70;;;2.50;;
57401;SDS011;43226;51.110;6.998;2023-12-20T07:49:09;9.63;;;4.27;;
57401;SDS011;43226;51.110;6.998;2023-12-20T07:51:35;16.20;;;4.30;;
57401;SDS011;43226;51.110;6.998;2023-12-20T07:54:00;8.83;;;3.67;;
57401;SDS011;43226;51.110;6.998;2023-12-20T07:56:25;9.97;;;3.80;;
57401;SDS011;43226;51.110;6.998;2023-12-20T07:58:50;20.00;;;7.17;;
57401;SDS011;43226;51.110;6.998;2023-12-20T08:01:16;9.17;;;4.20;;
57401;SDS011;43226;51.110;6.998;2023-12-20T08:03:42;16.13;;;3.83;;
57401;SDS011;43226;51.110;6.998;2023-12-20T08:06:07;9.63;;;3.83;;
57401;SDS011;43226;51.110;6.998;2023-12-20T08:08:32;9.70;;;3.93;;
57401;SDS011;43226;51.110;6.998;2023-12-20T08:10:57;22.80;;;4.10;;
57401;SDS011;43226;51.110;6.998;2023-12-20T08:13:25;13.17;;;3.97;;
57401;SDS011;43226;51.110;6.998;2023-12-20T08:15:51;14.23;;;4.70;;
57401;SDS011;43226;51.110;6.998;2023-12-20T08:18:16;13.67;;;3.60;;
57401;SDS011;43226;51.110;6.998;2023-12-20T08:20:41;21.53;;;3.90;;
57401;SDS011;43226;51.110;6.998;2023-12-20T08:23:07;11.60;;;3.60;;
57401;SDS011;43226;51.110;6.998;2023-12-20T08:25:32;8.33;;;3.60;;
57401;SDS011;43226;51.110;6.998;2023-12-20T08:27:57;11.00;;;3.60;;
57401;SDS011;43226;51.110;6.998;2023-12-20T08:30:22;12.17;;;3.50;;
57401;SDS011;43226;51.110;6.998;2023-12-20T08:32:48;16.87;;;3.50;;
57401;SDS011;43226;51.110;6.998;2023-12-20T08:35:13;10.20;;;3.70;;
57401;SDS011;43226;51.110;6.998;2023-12-20T08:37:38;16.40;;;3.80;;
57401;SDS011;43226;51.110;6.998;2023-12-20T08:40:03;13.33;;;3.80;;
57401;SDS011;43226;51.110;6.998;2023-12-20T08:42:29;25.60;;;3.20;;
57401;SDS011;43226;51.110;6.998;2023-12-20T08:44:56;10.80;;;3.20;;
57401;SDS011;43226;51.110;6.998;2023-12-20T08:47:21;15.23;;;3.83;;
57401;SDS011;43226;51.110;6.998;2023-12-20T08:49:46;9.00;;;2.60;;
57401;SDS011;43226;51.110;6.998;2023-12-20T08:52:12;17.17;;;3.73;;
57401;SDS011;43226;51.110;6.998;2023-12-20T08:54:37;13.50;;;3.50;;
57401;SDS011;43226;51.110;6.998;2023-12-20T08:57:02;9.30;;;3.57;;
57401;SDS011;43226;51.110;6.998;2023-12-20T08:59:27;14.17;;;4.30;;
57401;SDS011;43226;51.110;6.998;2023-12-20T09:01:52;10.00;;;3.40;;
57401;SDS011;43226;51.110;6.998;2023-12-20T09:04:19;11.07;;;3.90;;
57401;SDS011;43226;51.110;6.998;2023-12-20T09:06:45;10.17;;;3.17;;
57401;SDS011;43226;51.110;6.998;2023-12-20T09:09:10;10.60;;;2.40;;
57401;SDS011;43226;51.110;6.998;2023-12-20T09:11:38;13.70;;;3.10;;
57401;SDS011;43226;51.110;6.998;2023-12-20T09:14:03;9.10;;;2.63;;
57401;SDS011;43226;51.110;6.998;2023-12-20T09:16:28;8.80;;;3.47;;
57401;SDS011;43226;51.110;6.998;2023-12-20T09:18:54;13.17;;;3.10;;
57401;SDS011;43226;51.110;6.998;2023-12-20T09:21:19;11.83;;;2.43;;
57401;SDS011;43226;51.110;6.998;2023-12-20T09:23:44;15.67;;;2.37;;
57401;SDS011;43226;51.110;6.998;2023-12-20T09:26:10;7.97;;;2.50;;
57401;SDS011;43226;51.110;6.998;2023-12-20T09:28:35;7.37;;;3.00;;
57401;SDS011;43226;51.110;6.998;2023-12-20T09:31:02;10.33;;;3.23;;
57401;SDS011;43226;51.110;6.998;2023-12-20T09:33:27;8.53;;;2.83;;
57401;SDS011;43226;51.110;6.998;2023-12-20T09:35:52;9.37;;;1.97;;
57401;SDS011;43226;51.110;6.998;2023-12-20T09:38:17;12.40;;;2.90;;
57401;SDS011;43226;51.110;6.998;2023-12-20T09:40:42;12.60;;;2.70;;
57401;SDS011;43226;51.110;6.998;2023-12-20T09:43:09;7.37;;;2.60;;
57401;SDS011;43226;51.110;6.998;2023-12-20T09:45:35;5.13;;;2.33;;
57401;SDS011;43226;51.110;6.998;2023-12-20T09:48:00;8.53;;;2.67;;
57401;SDS011;43226;51.110;6.998;2023-12-20T09:50:26;6.87;;;2.57;;
57401;SDS011;43226;51.110;6.998;2023-12-20T09:52:52;8.93;;;2.30;;
57401;SDS011;43226;51.110;6.998;2023-12-20T09:55:18;14.20;;;2.57;;
57401;SDS011;43226;51.110;6.998;2023-12-20T09:57:44;8.10;;;2.50;;
57401;SDS011;43226;51.110;6.998;2023-12-20T10:00:09;10.97;;;3.07;;
57401;SDS011;43226;51.110;6.998;2023-12-20T10:02:34;4.13;;;2.47;;
57401;SDS011;43226;51.110;6.998;2023-12-20T10:05:03;14.37;;;3.60;;
57401;SDS011;43226;51.110;6.998;2023-12-20T10:07:30;9.57;;;3.67;;
57401;SDS011;43226;51.110;6.998;2023-12-20T10:09:55;10.67;;;2.63;;
57401;SDS011;43226;51.110;6.998;2023-12-20T10:12:21;10.97;;;2.40;;
57401;SDS011;43226;51.110;6.998;2023-12-20T10:14:46;14.07;;;2.57;;
57401;SDS011;43226;51.110;6.998;2023-12-20T10:17:11;14.17;;;2.60;;
57401;SDS011;43226;51.110;6.998;2023-12-20T10:19:36;13.03;;;3.00;;
57401;SDS011;43226;51.110;6.998;2023-12-20T10:22:04;16.73;;;3.50;;
57401;SDS011;43226;51.110;6.998;2023-12-20T10:24:29;12.97;;;2.40;;
57401;SDS011;43226;51.110;6.998;2023-12-20T10:27:01;7.23;;;2.37;;
57401;SDS011;43226;51.110;6.998;2023-12-20T10:29:26;18.63;;;2.97;;
57401;SDS011;43226;51.110;6.998;2023-12-20T10:31:51;13.90;;;2.93;;
57401;SDS011;43226;51.110;6.998;2023-12-20T10:34:22;9.73;;;2.30;;
57401;SDS011;43226;51.110;6.998;2023-12-20T10:36:47;14.20;;;2.60;;
57401;SDS011;43226;51.110;6.998;2023-12-20T10:39:12;11.30;;;2.30;;
57401;SDS011;43226;51.110;6.998;2023-12-20T10:41:39;15.40;;;2.90;;
57401;SDS011;43226;51.110;6.998;2023-12-20T10:44:06;13.80;;;2.60;;
57401;SDS011;43226;51.110;6.998;2023-12-20T10:46:31;15.03;;;2.50;;
57401;SDS011;43226;51.110;6.998;2023-12-20T10:49:01;6.23;;;1.97;;
57401;SDS011;43226;51.110;6.998;2023-12-20T10:51:27;5.90;;;2.90;;
57401;SDS011;43226;51.110;6.998;2023-12-20T10:53:54;9.00;;;2.77;;
57401;SDS011;43226;51.110;6.998;2023-12-20T10:56:20;13.63;;;3.90;;
57401;SDS011;43226;51.110;6.998;2023-12-20T10:58:51;10.07;;;2.37;;
57401;SDS011;43226;51.110;6.998;2023-12-20T11:01:17;9.90;;;3.20;;
57401;SDS011;43226;51.110;6.998;2023-12-20T11:06:58;21.20;;;2.53;;
57401;SDS011;43226;51.110;6.998;2023-12-20T11:09:10;9.77;;;2.77;;
57401;SDS011;43226;51.110;6.998;2023-12-20T11:11:44;21.90;;;3.47;;
57401;SDS011;43226;51.110;6.998;2023-12-20T11:14:21;14.23;;;3.43;;
57401;SDS011;43226;51.110;6.998;2023-12-20T11:16:47;13.77;;;4.00;;
57401;SDS011;43226;51.110;6.998;2023-12-20T11:19:12;19.87;;;4.80;;
57401;SDS011;43226;51.110;6.998;2023-12-20T11:21:41;16.93;;;2.50;;
57401;SDS011;43226;51.110;6.998;2023-12-20T11:24:06;13.13;;;2.73;;
57401;SDS011;43226;51.110;6.998;2023-12-20T11:26:32;9.83;;;2.87;;
57401;SDS011;43226;51.110;6.998;2023-12-20T11:29:29;22.40;;;4.40;;
57401;SDS011;43226;51.110;6.998;2023-12-20T11:31:48;8.90;;;2.20;;
57401;SDS011;43226;51.110;6.998;2023-12-20T11:34:13;4.40;;;2.50;;
57401;SDS011;43226;51.110;6.998;2023-12-20T11:36:42;4.20;;;1.90;;
57401;SDS011;43226;51.110;6.998;2023-12-20T11:39:07;8.53;;;2.43;;
57401;SDS011;43226;51.110;6.998;2023-12-20T11:41:33;7.90;;;2.17;;
57401;SDS011;43226;51.110;6.998;2023-12-20T11:43:59;13.23;;;2.60;;
57401;SDS011;43226;51.110;6.998;2023-12-20T11:46:26;8.70;;;2.50;;
57401;SDS011;43226;51.110;6.998;2023-12-20T11:48:51;11.77;;;2.80;;
57401;SDS011;43226;51.110;6.998;2023-12-20T11:51:16;11.03;;;2.93;;
57401;SDS011;43226;51.110;6.998;2023-12-20T11:53:41;10.87;;;3.53;;
57401;SDS011;43226;51.110;6.998;2023-12-20T11:56:09;13.00;;;3.77;;
57401;SDS011;43226;51.110;6.998;2023-12-20T11:58:35;13.27;;;4.77;;
57401;SDS011;43226;51.110;6.998;2023-12-20T12:01:00;11.63;;;3.80;;
57401;SDS011;43226;51.110;6.998;2023-12-20T12:03:27;12.50;;;4.70;;
57401;SDS011;43226;51.110;6.998;2023-12-20T12:05:52;16.23;;;2.47;;
57401;SDS011;43226;51.110;6.998;2023-12-20T12:08:18;5.47;;;2.20;;
57401;SDS011;43226;51.110;6.998;2023-12-20T12:10:43;14.17;;;3.30;;
57401;SDS011;43226;51.110;6.998;2023-12-20T12:13:09;8.07;;;2.97;;
57401;SDS011;43226;51.110;6.998;2023-12-20T12:15:35;13.10;;;3.63;;
57401;SDS011;43226;51.110;6.998;2023-12-20T12:18:00;5.13;;;2.40;;
57401;SDS011;43226;51.110;6.998;2023-12-20T12:20:26;13.27;;;3.00;;
57401;SDS011;43226;51.110;6.998;2023-12-20T12:23:01;17.70;;;2.97;;
57401;SDS011;43226;51.110;6.998;2023-12-20T12:25:28;15.10;;;2.53;;
57401;SDS011;43226;51.110;6.998;2023-12-20T12:27:57;6.30;;;2.57;;
57401;SDS011;43226;51.110;6.998;2023-12-20T12:30:23;9.97;;;2.90;;
57401;SDS011;43226;51.110;6.998;2023-12-20T12:32:48;19.83;;;3.83;;
57401;SDS011;43226;51.110;6.998;2023-12-20T12:35:13;6.30;;;2.83;;
57401;SDS011;43226;51.110;6.998;2023-12-20T12:37:39;9.90;;;3.30;;
57401;SDS011;43226;51.110;6.998;2023-12-20T12:40:06;10.97;;;3.47;;
57401;SDS011;43226;51.110;6.998;2023-12-20T12:42:32;10.57;;;3.10;;
57401;SDS011;43226;51.110;6.998;2023-12-20T12:44:57;13.13;;;3.27;;
57401;SDS011;43226;51.110;6.998;2023-12-20T12:47:22;13.93;;;3.50;;
57401;SDS011;43226;51.110;6.998;2023-12-20T12:49:49;20.60;;;4.67;;
57401;SDS011;43226;51.110;6.998;2023-12-20T12:52:16;6.57;;;2.60;;
57401;SDS011;43226;51.110;6.998;2023-12-20T12:54:41;4.40;;;3.10;;
57401;SDS011;43226;51.110;6.998;2023-12-20T12:57:07;11.40;;;3.50;;
57401;SDS011;43226;51.110;6.998;2023-12-20T12:59:32;7.90;;;3.40;;
57401;SDS011;43226;51.110;6.998;2023-12-20T13:01:57;12.20;;;3.00;;
57401;SDS011;43226;51.110;6.998;2023-12-20T13:04:23;43.97;;;4.20;;
57401;SDS011;43226;51.110;6.998;2023-12-20T13:06:48;6.43;;;3.43;;
57401;SDS011;43226;51.110;6.998;2023-12-20T13:09:13;8.43;;;3.00;;
57401;SDS011;43226;51.110;6.998;2023-12-20T13:11:40;4.90;;;2.93;;
57401;SDS011;43226;51.110;6.998;2023-12-20T13:14:05;14.50;;;4.13;;
57401;SDS011;43226;51.110;6.998;2023-12-20T13:16:30;14.80;;;3.83;;
57401;SDS011;43226;51.110;6.998;2023-12-20T13:18:56;10.00;;;2.30;;
57401;SDS011;43226;51.110;6.998;2023-12-20T13:21:21;10.90;;;3.70;;
57401;SDS011;43226;51.110;6.998;2023-12-20T13:23:52;8.37;;;3.00;;
57401;SDS011;43226;51.110;6.998;2023-12-20T13:26:18;7.23;;;3.00;;
57401;SDS011;43226;51.110;6.998;2023-12-20T13:28:44;6.37;;;3.13;;
57401;SDS011;43226;51.110;6.998;2023-12-20T13:31:09;12.27;;;3.63;;
57401;SDS011;43226;51.110;6.998;2023-12-20T13:33:34;9.17;;;3.47;;
57401;SDS011;43226;51.110;6.998;2023-12-20T13:35:59;12.83;;;3.80;;
57401;SDS011;43226;51.110;6.998;2023-12-20T13:38:25;8.13;;;3.13;;
57401;SDS011;43226;51.110;6.998;2023-12-20T13:40:50;11.67;;;3.80;;
57401;SDS011;43226;51.110;6.998;2023-12-20T13:43:15;8.77;;;3.97;;
57401;SDS011;43226;51.110;6.998;2023-12-20T13:45:45;17.57;;;3.60;;
57401;SDS011;43226;51.110;6.998;2023-12-20T13:48:10;15.57;;;6.47;;
57401;SDS011;43226;51.110;6.998;2023-12-20T13:50:36;8.07;;;3.90;;
57401;SDS011;43226;51.110;6.998;2023-12-20T13:53:01;4.10;;;2.90;;
57401;SDS011;43226;51.110;6.998;2023-12-20T13:55:29;13.53;;;3.77;;
57401;SDS011;43226;51.110;6.998;2023-12-20T13:57:55;6.57;;;3.17;;
57401;SDS011;43226;51.110;6.998;2023-12-20T14:00:20;11.70;;;3.60;;
57401;SDS011;43226;51.110;6.998;2023-12-20T14:02:45;10.87;;;3.23;;
57401;SDS011;43226;51.110;6.998;2023-12-20T14:05:11;4.40;;;3.10;;
57401;SDS011;43226;51.110;6.998;2023-12-20T14:07:36;14.57;;;3.03;;
57401;SDS011;43226;51.110;6.998;2023-12-20T14:10:02;9.50;;;3.27;;
57401;SDS011;43226;51.110;6.998;2023-12-20T14:12:27;7.07;;;2.70;;
57401;SDS011;43226;51.110;6.998;2023-12-20T14:14:52;10.40;;;2.87;;
57401;SDS011;43226;51.110;6.998;2023-12-20T14:17:20;6.10;;;3.20;;
57401;SDS011;43226;51.110;6.998;2023-12-20T14:19:45;11.60;;;4.20;;
57401;SDS011;43226;51.110;6.998;2023-12-20T14:22:10;3.93;;;2.47;;
57401;SDS011;43226;51.110;6.998;2023-12-20T14:24:35;12.63;;;2.80;;
57401;SDS011;43226;51.110;6.998;2023-12-20T14:27:01;11.37;;;2.80;;
57401;SDS011;43226;51.110;6.998;2023-12-20T14:29:26;9.67;;;3.03;;
57401;SDS011;43226;51.110;6.998;2023-12-20T14:31:52;8.60;;;2.63;;